createdAt,value
2019-05-10T00:00:41.631Z,3.83
2019-05-10T00:03:27.079Z,3.65
2019-05-10T00:06:12.384Z,3.80
2019-05-10T00:08:44.715Z,3.92
2019-05-10T00:11:37.686Z,3.42
2019-05-10T00:14:34.175Z,3.33
2019-05-10T00:17:08.627Z,3.60
2019-05-10T00:19:36.050Z,3.98
2019-05-10T00:22:03.649Z,3.72
2019-05-10T00:24:30.745Z,4.20
2019-05-10T00:26:57.723Z,3.95
2019-05-10T00:29:24.906Z,4.12
2019-05-10T00:31:52.002Z,3.90
2019-05-10T00:34:20.217Z,4.08
2019-05-10T00:36:47.373Z,4.25
2019-05-10T00:39:14.564Z,4.53
2019-05-10T00:41:41.652Z,4.10
2019-05-10T00:44:09.248Z,4.10
2019-05-10T00:46:36.626Z,4.05
2019-05-10T00:49:03.998Z,4.12
2019-05-10T00:51:32.184Z,4.62
2019-05-10T00:53:59.598Z,3.65
2019-05-10T00:56:26.923Z,4.40
2019-05-10T00:58:54.348Z,4.28
2019-05-10T01:01:21.446Z,4.25
2019-05-10T01:03:48.881Z,3.47
2019-05-10T01:06:16.082Z,4.20
2019-05-10T01:08:43.272Z,4.70
2019-05-10T01:11:10.904Z,4.25
2019-05-10T01:13:38.668Z,4.70
2019-05-10T01:16:05.679Z,4.60
2019-05-10T01:18:33.009Z,4.80
2019-05-10T01:21:00.054Z,5.40
2019-05-10T01:23:27.538Z,5.55
2019-05-10T01:25:54.967Z,5.75
2019-05-10T01:28:22.227Z,4.92
2019-05-10T01:30:49.384Z,4.92
2019-05-10T01:33:16.754Z,5.60
2019-05-10T01:35:44.224Z,4.75
2019-05-10T01:38:11.527Z,5.17
2019-05-10T01:40:38.502Z,5.85
2019-05-10T01:43:05.494Z,6.08
2019-05-10T01:45:32.526Z,5.83
2019-05-10T01:47:59.794Z,6.28
2019-05-10T01:50:26.784Z,6.22
2019-05-10T01:52:53.936Z,6.42
2019-05-10T01:55:21.309Z,6.35
2019-05-10T01:57:48.394Z,5.95
2019-05-10T02:00:16.043Z,6.53
2019-05-10T02:02:43.079Z,8.18
2019-05-10T02:05:10.501Z,9.03
2019-05-10T02:07:37.866Z,7.83
2019-05-10T02:10:05.327Z,7.78
2019-05-10T02:12:32.362Z,8.48
2019-05-10T02:14:59.390Z,8.80
2019-05-10T02:17:26.755Z,8.98
2019-05-10T02:19:53.786Z,9.63
2019-05-10T02:22:21.013Z,9.38
2019-05-10T02:24:48.111Z,9.80
2019-05-10T02:27:15.059Z,9.30
2019-05-10T02:29:42.591Z,9.80
2019-05-10T02:32:09.629Z,8.83
2019-05-10T02:34:37.088Z,10.35
2019-05-10T02:37:04.208Z,9.50
2019-05-10T02:39:31.472Z,9.85
2019-05-10T02:41:58.858Z,10.23
2019-05-10T02:44:25.943Z,9.85
2019-05-10T02:46:52.993Z,9.65
2019-05-10T02:49:20.101Z,10.75
2019-05-10T02:51:47.634Z,11.50
2019-05-10T02:54:15.220Z,11.05
2019-05-10T02:56:42.932Z,11.30
2019-05-10T02:59:11.370Z,10.18
2019-05-10T03:01:44.368Z,10.32
2019-05-10T03:04:12.715Z,11.10
2019-05-10T03:06:42.287Z,11.48
2019-05-10T03:09:09.601Z,11.48
2019-05-10T03:11:45.789Z,11.33
2019-05-10T03:14:19.261Z,11.08
2019-05-10T03:16:49.412Z,11.00
2019-05-10T03:19:18.211Z,12.03
2019-05-10T03:21:50.516Z,12.33
2019-05-10T03:24:17.886Z,11.28
2019-05-10T03:26:50.694Z,10.93
2019-05-10T03:29:16.623Z,11.05
2019-05-10T03:31:44.238Z,11.08
2019-05-10T03:34:11.527Z,10.95
2019-05-10T03:36:38.854Z,11.00
2019-05-10T03:39:06.040Z,11.10
2019-05-10T03:41:33.561Z,10.72
2019-05-10T03:44:00.523Z,11.03
2019-05-10T03:46:28.791Z,11.45
2019-05-10T03:48:55.905Z,10.82
2019-05-10T03:51:22.982Z,10.68
2019-05-10T03:53:50.130Z,11.45
2019-05-10T03:56:17.309Z,10.95
2019-05-10T03:58:44.339Z,10.82
2019-05-10T04:01:11.926Z,11.97
2019-05-10T04:03:39.356Z,11.57
2019-05-10T04:06:06.499Z,12.03
2019-05-10T04:08:34.376Z,12.25
2019-05-10T04:11:01.808Z,12.25
2019-05-10T04:13:28.839Z,12.82
2019-05-10T04:15:55.938Z,12.98
2019-05-10T04:18:23.310Z,12.23
2019-05-10T04:20:50.745Z,11.40
2019-05-10T04:23:17.989Z,13.93
2019-05-10T04:25:45.108Z,16.12
2019-05-10T04:28:12.281Z,13.25
2019-05-10T04:30:39.618Z,12.40
2019-05-10T04:33:06.696Z,15.00
2019-05-10T04:35:34.830Z,12.28
2019-05-10T04:38:02.127Z,12.58
2019-05-10T04:40:29.560Z,12.93
2019-05-10T04:42:56.655Z,13.75
2019-05-10T04:45:23.742Z,17.52
2019-05-10T04:47:50.826Z,17.15
2019-05-10T04:50:17.926Z,15.80
2019-05-10T04:52:45.374Z,18.40
2019-05-10T04:55:12.543Z,17.05
2019-05-10T04:57:49.792Z,17.85
2019-05-10T05:00:08.781Z,16.65
2019-05-10T05:02:35.811Z,15.30
2019-05-10T05:05:03.631Z,18.05
2019-05-10T05:07:30.715Z,20.32
2019-05-10T05:09:58.431Z,18.57
2019-05-10T05:12:25.731Z,19.75
2019-05-10T05:14:53.300Z,20.32
2019-05-10T05:17:20.689Z,16.50
2019-05-10T05:19:47.741Z,18.57
2019-05-10T05:22:14.839Z,19.10
2019-05-10T05:24:41.855Z,18.85
2019-05-10T05:27:08.886Z,17.35
2019-05-10T05:29:35.909Z,18.50
2019-05-10T05:32:03.864Z,20.95
2019-05-10T05:34:32.749Z,23.27
2019-05-10T05:36:59.996Z,20.80
2019-05-10T05:39:26.985Z,16.32
2019-05-10T05:41:56.581Z,18.15
2019-05-10T05:44:26.066Z,17.27
2019-05-10T05:46:52.409Z,16.20
2019-05-10T05:49:19.528Z,19.85
2019-05-10T05:51:46.584Z,16.30
2019-05-10T05:54:15.086Z,22.60
2019-05-10T05:56:44.438Z,18.25
2019-05-10T05:59:17.451Z,19.23
2019-05-10T06:01:41.751Z,18.35
2019-05-10T06:04:12.525Z,20.20
2019-05-10T06:06:38.259Z,16.75
2019-05-10T06:09:05.848Z,17.23
2019-05-10T06:11:35.956Z,16.85
2019-05-10T06:14:09.724Z,17.00
2019-05-10T06:16:32.714Z,16.95
2019-05-10T06:18:59.839Z,16.45
2019-05-10T06:21:27.093Z,16.55
2019-05-10T06:23:54.411Z,17.77
2019-05-10T06:26:28.051Z,17.00
2019-05-10T06:29:03.391Z,17.45
2019-05-10T06:31:19.777Z,17.30
2019-05-10T06:33:47.052Z,19.87
2019-05-10T06:36:14.172Z,18.65
2019-05-10T06:38:41.233Z,18.65
2019-05-10T06:41:10.177Z,18.60
2019-05-10T06:43:37.331Z,20.02
2019-05-10T06:46:04.686Z,18.98
2019-05-10T06:48:33.617Z,19.35
2019-05-10T06:51:02.820Z,18.30
2019-05-10T06:53:29.664Z,18.37
2019-05-10T06:55:56.882Z,18.17
2019-05-10T06:58:24.463Z,18.10
2019-05-10T07:00:52.872Z,17.25
2019-05-10T07:03:20.514Z,16.90
2019-05-10T07:05:47.527Z,15.90
2019-05-10T07:08:20.141Z,14.25
2019-05-10T07:10:43.908Z,12.18
2019-05-10T07:13:11.468Z,9.10
2019-05-10T07:15:42.195Z,9.15
2019-05-10T07:18:07.750Z,6.05
2019-05-10T07:20:34.824Z,7.37
2019-05-10T07:23:06.247Z,6.90
2019-05-10T07:25:31.118Z,6.25
2019-05-10T07:27:58.361Z,7.17
2019-05-10T07:30:30.972Z,7.60
2019-05-10T07:32:59.958Z,8.75
2019-05-10T07:35:30.942Z,8.48
2019-05-10T07:37:57.782Z,8.05
2019-05-10T07:40:24.833Z,9.13
2019-05-10T07:42:52.237Z,9.33
2019-05-10T07:45:25.562Z,10.15
2019-05-10T07:47:48.725Z,10.32
2019-05-10T07:50:15.838Z,10.43
2019-05-10T07:52:43.806Z,11.05
2019-05-10T07:55:11.856Z,11.15
2019-05-10T07:57:39.378Z,11.43
2019-05-10T08:00:07.063Z,11.73
2019-05-10T08:02:34.303Z,11.18
2019-05-10T08:05:04.963Z,11.90
2019-05-10T08:07:30.626Z,12.10
2019-05-10T08:09:59.445Z,13.35
2019-05-10T08:12:28.848Z,12.25
2019-05-10T08:14:56.416Z,12.30
2019-05-10T08:17:23.379Z,12.10
2019-05-10T08:19:50.440Z,11.80
2019-05-10T08:22:17.556Z,11.20
2019-05-10T08:24:52.652Z,11.80
2019-05-10T08:27:14.774Z,11.38
2019-05-10T08:29:42.932Z,11.20
2019-05-10T08:32:12.809Z,22.55
2019-05-10T08:34:50.690Z,10.82
2019-05-10T08:37:08.593Z,10.93
2019-05-10T08:39:46.537Z,11.53
2019-05-10T08:42:28.588Z,10.93
2019-05-10T08:44:34.262Z,11.15
2019-05-10T08:47:02.286Z,11.08
2019-05-10T08:49:41.764Z,10.95
2019-05-10T08:51:59.550Z,11.90
2019-05-10T08:54:27.026Z,11.50
2019-05-10T08:57:01.097Z,10.48
2019-05-10T08:59:26.454Z,11.30
2019-05-10T09:01:53.777Z,11.28
2019-05-10T09:04:22.247Z,11.30
2019-05-10T09:06:55.499Z,10.55
2019-05-10T09:09:18.823Z,11.53
2019-05-10T09:11:46.512Z,11.03
2019-05-10T09:14:19.717Z,11.78
2019-05-10T09:16:45.718Z,11.88
2019-05-10T09:19:12.523Z,9.60
2019-05-10T09:21:40.972Z,10.00
2019-05-10T09:24:08.551Z,8.38
2019-05-10T09:26:35.877Z,9.53
2019-05-10T09:29:03.079Z,9.70
2019-05-10T09:31:32.498Z,10.03
2019-05-10T09:33:59.233Z,9.28
2019-05-10T09:36:31.058Z,10.32
2019-05-10T09:38:55.148Z,10.38
2019-05-10T09:41:22.707Z,9.65
2019-05-10T09:43:50.627Z,9.83
2019-05-10T09:46:18.807Z,9.10
2019-05-10T09:48:45.793Z,7.95
2019-05-10T09:51:13.792Z,7.80
2019-05-10T09:53:40.982Z,7.95
2019-05-10T09:56:08.008Z,6.12
2019-05-10T09:58:35.061Z,7.17
2019-05-10T10:01:13.452Z,6.17
2019-05-10T10:03:39.834Z,8.05
2019-05-10T10:06:06.017Z,4.78
2019-05-10T10:08:29.290Z,4.10
2019-05-10T10:11:01.242Z,5.53
2019-05-10T10:13:39.049Z,4.37
2019-05-10T10:15:54.243Z,3.98
2019-05-10T10:18:25.215Z,4.17
2019-05-10T10:20:50.194Z,3.70
2019-05-10T10:23:17.466Z,4.50
2019-05-10T10:25:44.557Z,4.55
2019-05-10T10:28:16.858Z,4.20
2019-05-10T10:30:40.685Z,5.80
2019-05-10T10:33:11.735Z,4.30
2019-05-10T10:35:37.787Z,4.00
2019-05-10T10:38:07.747Z,4.72
2019-05-10T10:40:35.497Z,5.37
2019-05-10T10:43:03.435Z,4.58
2019-05-10T10:45:30.440Z,4.37
2019-05-10T10:48:02.561Z,3.25
2019-05-10T10:50:27.538Z,3.47
2019-05-10T10:52:57.345Z,3.92
2019-05-10T10:55:23.950Z,3.85
2019-05-10T10:57:50.939Z,3.58
2019-05-10T11:00:30.518Z,3.90
2019-05-10T11:02:58.159Z,3.05
2019-05-10T11:05:25.166Z,3.10
2019-05-10T11:07:52.198Z,3.40
2019-05-10T11:10:24.593Z,3.20
2019-05-10T11:12:56.405Z,2.58
2019-05-10T11:15:23.221Z,2.67
2019-05-10T11:17:50.606Z,2.25
2019-05-10T11:20:17.789Z,2.10
2019-05-10T11:22:51.671Z,2.00
2019-05-10T11:25:14.374Z,3.15
2019-05-10T11:27:41.784Z,2.70
2019-05-10T11:30:11.899Z,2.55
2019-05-10T11:32:38.699Z,2.47
2019-05-10T11:35:06.199Z,2.40
2019-05-10T11:37:36.358Z,2.30
2019-05-10T11:40:02.226Z,2.42
2019-05-10T11:42:31.025Z,2.58
2019-05-10T11:45:00.635Z,3.00
2019-05-10T11:47:27.492Z,2.62
2019-05-10T11:49:54.868Z,2.05
2019-05-10T11:52:21.922Z,2.25
2019-05-10T11:54:51.440Z,3.10
2019-05-10T11:57:18.391Z,2.42
2019-05-10T11:59:45.402Z,2.55
2019-05-10T12:02:33.888Z,2.65
2019-05-10T12:04:43.407Z,3.20
2019-05-10T12:09:42.509Z,2.52
2019-05-10T12:12:11.980Z,2.77
2019-05-10T12:14:37.195Z,2.17
2019-05-10T12:17:06.322Z,2.58
2019-05-10T12:22:04.734Z,2.75
2019-05-10T12:24:46.657Z,3.20
2019-05-10T12:26:05.084Z,2.80
2019-05-10T12:26:05.396Z,2.37
2019-05-10T12:27:18.862Z,3.25
2019-05-10T12:29:31.650Z,2.85
2019-05-10T12:31:58.662Z,2.70
2019-05-10T12:34:26.026Z,2.90
2019-05-10T12:36:57.495Z,2.85
2019-05-10T12:39:22.526Z,2.98
2019-05-10T12:41:52.252Z,3.17
2019-05-10T12:44:18.631Z,3.30
2019-05-10T12:46:45.691Z,3.17
2019-05-10T12:49:13.378Z,4.33
2019-05-10T12:51:40.885Z,3.33
2019-05-10T12:54:11.278Z,2.50
2019-05-10T12:56:43.834Z,2.42
2019-05-10T12:59:07.327Z,2.37
2019-05-10T13:01:34.591Z,2.00
2019-05-10T13:04:02.234Z,2.08
2019-05-10T13:06:30.620Z,1.75
2019-05-10T13:08:57.622Z,2.10
2019-05-10T13:11:25.667Z,1.80
2019-05-10T13:13:53.577Z,2.33
2019-05-10T13:16:20.566Z,1.62
2019-05-10T13:18:51.706Z,2.17
2019-05-10T13:21:20.663Z,1.98
2019-05-10T13:23:45.577Z,1.75
2019-05-10T13:26:12.561Z,2.22
2019-05-10T13:28:39.586Z,2.40
2019-05-10T13:31:07.259Z,1.98
2019-05-10T13:33:41.621Z,2.37
2019-05-10T13:36:04.013Z,1.72
2019-05-10T13:38:31.377Z,1.90
2019-05-10T13:40:58.661Z,1.92
2019-05-10T13:43:30.108Z,1.80
2019-05-10T13:45:57.483Z,2.10
2019-05-10T13:48:26.417Z,1.70
2019-05-10T13:50:53.567Z,3.17
2019-05-10T13:53:23.053Z,2.00
2019-05-10T13:55:49.955Z,2.30
2019-05-10T13:58:17.085Z,1.87
2019-05-10T14:00:44.329Z,2.75
2019-05-10T14:03:13.511Z,2.17
2019-05-10T14:05:41.015Z,2.02
2019-05-10T14:08:08.238Z,2.05
2019-05-10T14:10:35.772Z,1.92
2019-05-10T14:13:04.126Z,1.98
2019-05-10T14:15:31.978Z,2.20
2019-05-10T14:17:59.043Z,2.52
2019-05-10T14:20:27.637Z,2.33
2019-05-10T14:22:58.517Z,2.30
2019-05-10T14:25:29.629Z,2.15
2019-05-10T14:27:54.819Z,2.10
2019-05-10T14:30:23.007Z,1.82
2019-05-10T14:32:50.228Z,2.00
2019-05-10T14:35:22.571Z,1.95
2019-05-10T14:37:47.975Z,1.82
2019-05-10T14:40:17.012Z,1.90
2019-05-10T14:42:45.046Z,2.00
2019-05-10T14:45:12.477Z,2.20
2019-05-10T14:47:48.312Z,2.72
2019-05-10T14:50:09.686Z,2.22
2019-05-10T14:52:36.867Z,2.22
2019-05-10T14:55:05.143Z,2.15
2019-05-10T14:57:32.205Z,2.12
2019-05-10T14:59:59.222Z,2.37
2019-05-10T15:02:26.202Z,2.42
2019-05-10T15:04:53.648Z,2.50
2019-05-10T15:07:20.951Z,2.12
2019-05-10T15:09:48.022Z,2.33
2019-05-10T15:12:22.415Z,2.33
2019-05-10T15:14:44.335Z,2.33
2019-05-10T15:17:11.518Z,2.40
2019-05-10T15:19:38.612Z,1.90
2019-05-10T15:22:05.896Z,1.95
2019-05-10T15:24:33.038Z,2.00
2019-05-10T15:27:00.158Z,2.33
2019-05-10T15:29:27.892Z,2.37
2019-05-10T15:31:55.125Z,2.00
2019-05-10T15:34:22.491Z,1.85
2019-05-10T15:36:49.531Z,2.45
2019-05-10T15:39:16.886Z,2.05
2019-05-10T15:41:43.927Z,1.80
2019-05-10T15:44:11.249Z,2.08
2019-05-10T15:46:42.280Z,2.00
2019-05-10T15:49:08.377Z,2.22
2019-05-10T15:51:36.704Z,2.10
2019-05-10T15:54:07.215Z,2.27
2019-05-10T15:56:35.513Z,2.30
2019-05-10T15:59:02.551Z,2.33
2019-05-10T16:01:29.560Z,2.45
2019-05-10T16:03:57.771Z,2.40
2019-05-10T16:06:25.075Z,1.87
2019-05-10T16:08:52.451Z,2.37
2019-05-10T16:11:20.787Z,1.92
2019-05-10T16:13:48.169Z,2.00
2019-05-10T16:16:15.829Z,2.40
2019-05-10T16:18:42.922Z,2.45
2019-05-10T16:21:15.297Z,2.30
2019-05-10T16:23:41.505Z,2.20
2019-05-10T16:26:08.186Z,2.52
2019-05-10T16:28:38.394Z,2.20
2019-05-10T16:31:05.600Z,3.02
2019-05-10T16:33:32.683Z,2.60
2019-05-10T16:36:00.554Z,2.47
2019-05-10T16:38:27.947Z,2.37
2019-05-10T16:41:00.616Z,2.15
2019-05-10T16:43:24.863Z,2.70
2019-05-10T16:45:52.404Z,3.37
2019-05-10T16:48:19.468Z,2.80
2019-05-10T16:50:46.534Z,2.65
2019-05-10T16:53:13.764Z,2.72
2019-05-10T16:55:42.934Z,2.40
2019-05-10T16:58:15.206Z,2.45
2019-05-10T17:00:40.613Z,2.40
2019-05-10T17:03:07.865Z,2.42
2019-05-10T17:05:34.889Z,2.52
2019-05-10T17:08:01.911Z,2.80
2019-05-10T17:10:32.819Z,2.50
2019-05-10T17:12:59.482Z,4.62
2019-05-10T17:15:27.409Z,2.52
2019-05-10T17:17:54.399Z,3.22
2019-05-10T17:20:21.560Z,2.50
2019-05-10T17:22:49.205Z,2.12
2019-05-10T17:25:16.572Z,2.30
2019-05-10T17:27:44.363Z,2.00
2019-05-10T17:30:11.647Z,2.60
2019-05-10T17:32:38.718Z,2.20
2019-05-10T17:35:06.917Z,2.65
2019-05-10T17:37:35.833Z,2.30
2019-05-10T17:40:04.718Z,2.72
2019-05-10T17:42:35.579Z,2.17
2019-05-10T17:45:04.366Z,3.45
2019-05-10T17:47:32.219Z,3.10
2019-05-10T17:50:01.163Z,2.20
2019-05-10T17:52:28.156Z,2.27
2019-05-10T17:54:56.254Z,2.00
2019-05-10T17:57:23.284Z,2.60
2019-05-10T17:59:53.087Z,2.08
2019-05-10T18:02:20.223Z,2.80
2019-05-10T18:04:51.128Z,2.70
2019-05-10T18:07:18.670Z,2.40
2019-05-10T18:09:46.210Z,2.47
2019-05-10T18:12:15.673Z,2.35
2019-05-10T18:14:44.124Z,2.70
2019-05-10T18:17:12.087Z,2.22
2019-05-10T18:19:39.600Z,2.52
2019-05-10T18:22:07.491Z,2.55
2019-05-10T18:24:38.615Z,2.58
2019-05-10T18:27:04.994Z,2.33
2019-05-10T18:29:32.291Z,2.75
2019-05-10T18:32:00.308Z,2.30
2019-05-10T18:34:33.263Z,2.15
2019-05-10T18:36:56.492Z,2.33
2019-05-10T18:39:23.998Z,2.85
2019-05-10T18:41:51.784Z,2.98
2019-05-10T18:44:19.533Z,2.50
2019-05-10T18:46:47.533Z,2.72
2019-05-10T18:49:15.409Z,2.83
2019-05-10T18:51:43.305Z,2.72
2019-05-10T18:54:11.113Z,2.40
2019-05-10T18:56:39.030Z,3.00
2019-05-10T18:59:08.824Z,3.05
2019-05-10T19:01:38.639Z,2.45
2019-05-10T19:04:07.178Z,2.50
2019-05-10T19:06:35.253Z,2.45
2019-05-10T19:09:05.175Z,3.58
2019-05-10T19:11:33.391Z,2.70
2019-05-10T19:14:04.586Z,3.87
2019-05-10T19:16:32.159Z,3.15
2019-05-10T19:19:01.920Z,2.50
2019-05-10T19:21:30.664Z,2.95
2019-05-10T19:23:57.738Z,3.00
2019-05-10T19:26:29.554Z,2.85
2019-05-10T19:28:59.082Z,2.40
2019-05-10T19:31:23.143Z,2.67
2019-05-10T19:33:50.435Z,2.90
2019-05-10T19:36:17.587Z,3.35
2019-05-10T19:38:44.570Z,3.50
2019-05-10T19:41:11.596Z,3.37
2019-05-10T19:43:38.674Z,3.08
2019-05-10T19:46:05.895Z,3.10
2019-05-10T19:48:35.745Z,2.95
2019-05-10T19:51:02.805Z,3.22
2019-05-10T19:53:31.610Z,3.40
2019-05-10T19:56:00.093Z,4.15
2019-05-10T19:58:32.273Z,2.42
2019-05-10T20:00:57.751Z,3.95
2019-05-10T20:03:24.892Z,3.70
2019-05-10T20:05:51.892Z,3.17
2019-05-10T20:08:18.979Z,3.30
2019-05-10T20:10:46.496Z,3.60
2019-05-10T20:13:13.539Z,3.92
2019-05-10T20:15:40.652Z,4.10
2019-05-10T20:18:08.171Z,4.67
2019-05-10T20:20:35.926Z,4.83
2019-05-10T20:23:03.477Z,4.22
2019-05-10T20:25:30.527Z,4.20
2019-05-10T20:27:58.059Z,4.53
2019-05-10T20:30:25.110Z,5.30
2019-05-10T20:32:52.112Z,4.47
2019-05-10T20:35:19.223Z,5.12
2019-05-10T20:38:00.780Z,5.05
2019-05-10T20:40:16.798Z,5.08
2019-05-10T20:42:43.866Z,3.90
2019-05-10T20:45:11.167Z,6.78
2019-05-10T20:47:38.520Z,4.47
2019-05-10T20:50:06.137Z,4.40
2019-05-10T20:52:33.174Z,3.50
2019-05-10T20:55:00.202Z,4.08
2019-05-10T20:57:27.543Z,4.45
2019-05-10T20:59:54.545Z,4.60
2019-05-10T21:02:21.499Z,4.62
2019-05-10T21:04:48.494Z,3.65
2019-05-10T21:07:15.480Z,3.55
2019-05-10T21:09:42.492Z,5.58
2019-05-10T21:12:09.611Z,3.37
2019-05-10T21:14:36.584Z,8.18
2019-05-10T21:17:03.673Z,4.20
2019-05-10T21:19:30.839Z,5.17
2019-05-10T21:21:57.877Z,4.47
2019-05-10T21:24:24.944Z,3.95
2019-05-10T21:26:52.002Z,3.98
2019-05-10T21:29:19.082Z,3.33
2019-05-10T21:31:46.146Z,3.90
2019-05-10T21:34:13.362Z,6.05
2019-05-10T21:36:40.335Z,3.65
2019-05-10T21:39:08.347Z,3.17
2019-05-10T21:41:35.420Z,4.12
2019-05-10T21:44:02.479Z,3.83
2019-05-10T21:46:29.591Z,4.05
2019-05-10T21:48:56.572Z,3.87
2019-05-10T21:51:23.804Z,3.77
2019-05-10T21:53:51.053Z,3.27
2019-05-10T21:56:18.453Z,4.22
2019-05-10T21:58:45.404Z,4.12
2019-05-10T22:01:13.204Z,4.00
2019-05-10T22:03:40.478Z,4.78
2019-05-10T22:06:07.572Z,3.87
2019-05-10T22:08:48.432Z,4.28
2019-05-10T22:11:03.402Z,4.40
2019-05-10T22:13:30.691Z,4.58
2019-05-10T22:15:58.750Z,5.30
2019-05-10T22:18:25.963Z,4.70
2019-05-10T22:20:52.998Z,5.35
2019-05-10T22:23:20.367Z,5.87
2019-05-10T22:25:47.322Z,6.53
2019-05-10T22:28:14.305Z,6.33
2019-05-10T22:30:41.281Z,5.50
2019-05-10T22:33:08.243Z,5.62
2019-05-10T22:35:35.207Z,5.10
2019-05-10T22:38:02.259Z,5.78
2019-05-10T22:40:29.501Z,5.70
2019-05-10T22:42:56.712Z,5.90
2019-05-10T22:45:23.923Z,6.45
2019-05-10T22:47:51.055Z,5.47
2019-05-10T22:50:19.149Z,5.75
2019-05-10T22:52:46.253Z,5.83
2019-05-10T22:55:13.590Z,5.28
2019-05-10T22:57:41.216Z,5.75
2019-05-10T23:00:09.628Z,7.08
2019-05-10T23:02:38.384Z,7.33
2019-05-10T23:05:05.449Z,7.15
2019-05-10T23:07:32.578Z,7.03
2019-05-10T23:10:00.153Z,7.80
2019-05-10T23:12:27.140Z,6.03
2019-05-10T23:14:54.734Z,5.87
2019-05-10T23:17:21.780Z,5.70
2019-05-10T23:19:48.831Z,6.95
2019-05-10T23:22:15.945Z,6.35
2019-05-10T23:24:43.059Z,5.60
2019-05-10T23:27:10.167Z,6.62
2019-05-10T23:29:37.163Z,6.60
2019-05-10T23:32:04.318Z,6.17
2019-05-10T23:34:31.390Z,6.90
2019-05-10T23:36:58.518Z,7.33
2019-05-10T23:39:39.612Z,6.37
2019-05-10T23:41:54.402Z,6.67
2019-05-10T23:44:21.590Z,6.20
2019-05-10T23:46:48.689Z,6.15
2019-05-10T23:49:15.664Z,6.60
2019-05-10T23:51:42.715Z,6.37
2019-05-10T23:54:09.771Z,6.72
2019-05-10T23:56:37.167Z,6.45
2019-05-10T23:59:04.350Z,6.78
